Time;durP1;ratioP1;P1;durP2;ratioP2;P2;SDS_P1;SDS_P2;PMS_P1;PMS_P2;Temp;Humidity;BMP_temperature;BMP_pressure;BME280_temperature;BME280_humidity;BME280_pressure;Samples;Min_cycle;Max_cycle;Signal;HPM_P1;HPM_P2
2022/03/23 00:00:39;;;;;;;8.35;1.63;;;;;;;2.08;46.35;94524.75;5110041;28;20059;-48
2022/03/23 00:03:05;;;;;;;8.90;2.90;;;;;;;1.92;48.70;94535.34;5110968;28;20475;-44
2022/03/23 00:05:32;;;;;;;17.35;5.55;;;;;;;1.82;50.18;94529.22;5113748;28;20032;-46
2022/03/23 00:07:58;;;;;;;12.93;6.18;;;;;;;1.44;50.42;94531.91;5113654;28;20023;-44
2022/03/23 00:10:24;;;;;;;9.23;5.20;;;;;;;1.25;51.59;94536.72;5108334;28;20032;-44
2022/03/23 00:12:49;;;;;;;9.32;3.75;;;;;;;1.43;49.75;94531.16;5093463;28;20106;-45
2022/03/23 00:15:15;;;;;;;6.38;2.83;;;;;;;1.27;50.42;94531.56;5093067;28;20177;-44
2022/03/23 00:17:40;;;;;;;3.17;1.85;;;;;;;1.33;49.17;94527.00;5093083;28;20028;-45
2022/03/23 00:20:07;;;;;;;5.00;2.88;;;;;;;1.27;50.36;94528.84;5093038;28;20024;-44
2022/03/23 00:22:32;;;;;;;7.53;4.38;;;;;;;1.27;51.85;94526.13;5093214;28;20028;-44
2022/03/23 00:24:58;;;;;;;10.75;4.55;;;;;;;1.16;50.99;94516.97;5092946;28;20062;-45
2022/03/23 00:27:24;;;;;;;5.93;3.90;;;;;;;1.20;51.97;94518.31;5092845;28;20028;-44
2022/03/23 00:29:50;;;;;;;8.13;3.15;;;;;;;1.31;50.27;94512.34;5092777;28;20028;-45
2022/03/23 00:32:15;;;;;;;9.95;2.75;;;;;;;1.22;51.42;94517.84;5092756;28;20016;-46
2022/03/23 00:34:41;;;;;;;5.38;3.25;;;;;;;0.89;51.78;94517.84;5092450;28;20043;-45
2022/03/23 00:37:06;;;;;;;4.10;2.40;;;;;;;1.01;52.00;94518.88;5093000;28;20039;-44
2022/03/23 00:39:31;;;;;;;5.43;2.58;;;;;;;0.80;54.24;94526.06;5092961;28;20413;-43
2022/03/23 00:41:57;;;;;;;7.22;2.97;;;;;;;0.66;53.58;94508.47;5091932;28;20020;-44
2022/03/23 00:44:23;;;;;;;6.55;4.20;;;;;;;0.37;53.83;94512.94;5092883;28;20031;-45
2022/03/23 00:46:48;;;;;;;5.05;3.33;;;;;;;0.14;55.88;94508.91;5092401;28;20561;-45
2022/03/23 00:49:14;;;;;;;4.93;2.30;;;;;;;-0.04;56.04;94525.22;5092813;28;20028;-44
2022/03/23 00:51:40;;;;;;;7.43;4.30;;;;;;;0.10;55.56;94519.19;5092426;28;20024;-44
2022/03/23 00:54:05;;;;;;;4.65;3.30;;;;;;;0.24;55.35;94525.94;5109989;28;20483;-45
2022/03/23 00:56:31;;;;;;;9.98;4.13;;;;;;;0.08;56.01;94512.69;5112637;28;20026;-44
2022/03/23 00:58:56;;;;;;;5.32;2.70;;;;;;;-0.06;56.69;94517.53;5112554;28;20075;-43
2022/03/23 01:01:22;;;;;;;3.70;2.22;;;;;;;-0.14;55.88;94524.50;5112696;28;20080;-45
2022/03/23 01:03:48;;;;;;;4.88;2.30;;;;;;;-0.15;54.34;94489.63;5112790;28;20080;-44
2022/03/23 01:06:14;;;;;;;4.80;2.55;;;;;;;0.17;54.02;94512.69;5112598;28;20454;-43
2022/03/23 01:08:40;;;;;;;7.70;2.50;;;;;;;0.41;52.60;94516.25;5112726;28;20579;-44
2022/03/23 01:11:05;;;;;;;4.72;2.28;;;;;;;0.51;53.09;94512.28;5100902;28;20122;-44
2022/03/23 01:13:31;;;;;;;5.38;2.03;;;;;;;0.43;54.34;94513.81;5092136;28;20428;-45
2022/03/23 01:15:57;;;;;;;7.22;2.92;;;;;;;0.36;54.44;94503.28;5092138;28;20013;-44
2022/03/23 01:18:22;;;;;;;10.18;3.15;;;;;;;0.41;54.07;94505.38;5091913;28;20482;-44
2022/03/23 01:20:48;;;;;;;3.75;2.00;;;;;;;0.34;54.18;94505.69;5092093;28;20024;-44
2022/03/23 01:23:13;;;;;;;5.68;2.67;;;;;;;0.06;55.18;94507.72;5092065;28;20646;-44
2022/03/23 01:25:39;;;;;;;4.13;2.40;;;;;;;0.04;55.04;94506.66;5091848;28;20036;-44
2022/03/23 01:28:05;;;;;;;6.60;2.42;;;;;;;0.09;54.56;94501.38;5091624;28;20020;-45
2022/03/23 01:30:30;;;;;;;4.03;1.60;;;;;;;0.10;54.92;94494.75;5092001;28;20024;-44
2022/03/23 01:32:56;;;;;;;3.53;1.58;;;;;;;0.07;55.42;94497.59;5091763;28;20073;-44
2022/03/23 01:35:21;;;;;;;3.90;2.17;;;;;;;0.03;55.40;94500.47;5091505;28;20056;-45
2022/03/23 01:37:46;;;;;;;7.50;3.17;;;;;;;0.03;54.99;94505.91;5091479;28;20020;-43
2022/03/23 01:40:12;;;;;;;5.05;2.45;;;;;;;-0.05;55.69;94480.28;5091201;28;20012;-43
2022/03/23 01:42:39;;;;;;;5.53;2.78;;;;;;;0.04;55.25;94509.38;5091742;28;20016;-45
2022/03/23 01:45:09;;;;;;;3.95;2.00;;;;;;;-0.02;55.43;94509.22;5091625;28;20069;-45
2022/03/23 01:47:35;;;;;;;3.25;1.92;;;;;;;-0.01;56.97;94505.31;5091310;28;20486;-43
2022/03/23 01:50:03;;;;;;;4.07;2.38;;;;;;;-0.17;56.94;94500.97;5106291;28;20043;-44
2022/03/23 01:52:31;;;;;;;9.50;2.15;;;;;;;-0.06;56.39;94503.97;5111663;28;20059;-44
2022/03/23 01:54:57;;;;;;;4.38;2.50;;;;;;;-0.17;56.45;94506.38;5109475;28;20035;-45
2022/03/23 01:57:23;;;;;;;4.45;2.38;;;;;;;-0.18;57.27;94513.03;5089986;28;20020;-44
2022/03/23 01:59:49;;;;;;;11.10;1.88;;;;;;;-0.13;56.97;94511.69;5091078;28;20101;-44
2022/03/23 02:02:15;;;;;;;3.35;2.60;;;;;;;-0.12;57.04;94511.22;5091285;28;20031;-44
2022/03/23 02:04:40;;;;;;;3.50;2.28;;;;;;;-0.27;58.15;94521.19;5091005;28;20099;-45
2022/03/23 02:07:06;;;;;;;3.75;1.67;;;;;;;-0.30;58.01;94510.47;5091195;28;20082;-44
2022/03/23 02:09:32;;;;;;;7.85;2.05;;;;;;;-0.44;57.93;94506.41;5090964;28;20031;-44
2022/03/23 02:11:58;;;;;;;6.70;3.50;;;;;;;-0.40;57.96;94514.38;5109444;28;20106;-43
2022/03/23 02:14:23;;;;;;;10.40;5.82;;;;;;;-0.36;57.88;94523.88;5111182;28;20031;-44
2022/03/23 02:16:50;;;;;;;9.25;2.75;;;;;;;-0.21;59.24;94521.31;5111405;28;20024;-44
2022/03/23 02:19:17;;;;;;;5.35;3.05;;;;;;;-0.08;58.41;94530.81;5111442;28;20019;-45
2022/03/23 02:21:50;;;;;;;6.63;3.28;;;;;;;0.08;58.54;94526.28;5111348;28;20015;-45
2022/03/23 02:24:16;;;;;;;6.07;3.13;;;;;;;0.27;58.58;94523.06;5110988;28;20011;-44
2022/03/23 02:26:42;;;;;;;11.93;3.60;;;;;;;0.35;58.35;94502.50;5110853;28;20461;-45
2022/03/23 02:29:08;;;;;;;15.60;8.02;;;;;;;0.62;57.95;94528.84;5110926;28;20016;-46
2022/03/23 02:31:35;;;;;;;6.38;4.03;;;;;;;0.41;57.92;94486.38;5109904;28;20077;-43
2022/03/23 02:34:00;;;;;;;9.23;4.22;;;;;;;0.74;57.54;94531.38;5110605;28;20501;-44
2022/03/23 02:36:26;;;;;;;12.82;3.33;;;;;;;0.84;57.66;94529.38;5111226;28;20027;-45
2022/03/23 02:38:52;;;;;;;8.20;2.58;;;;;;;0.84;57.25;94518.50;5110830;28;20183;-43
2022/03/23 02:41:18;;;;;;;7.78;2.70;;;;;;;1.04;57.52;94526.13;5110536;28;20034;-45
2022/03/23 02:43:44;;;;;;;7.55;3.47;;;;;;;0.99;57.29;94526.72;5110807;28;20020;-44
2022/03/23 02:46:17;;;;;;;4.20;2.13;;;;;;;0.87;58.00;94527.72;5110662;28;20429;-45
2022/03/23 02:48:43;;;;;;;3.63;2.53;;;;;;;0.92;57.64;94527.81;5110970;28;20023;-45
2022/03/23 02:51:09;;;;;;;8.77;3.55;;;;;;;1.14;57.72;94535.72;5110942;28;20114;-44
2022/03/23 03:02:21;;;;;;;7.95;2.58;;;;;;;1.42;58.64;94531.63;5090536;28;20027;-45
2022/03/23 03:04:48;;;;;;;3.47;2.10;;;;;;;1.49;58.02;94528.56;5090501;28;20020;-44
2022/03/23 03:07:14;;;;;;;15.05;4.10;;;;;;;1.51;57.46;94521.44;5090198;28;20024;-44
2022/03/23 03:09:39;;;;;;;12.75;3.10;;;;;;;1.49;57.91;94521.13;5090056;28;20035;-44
2022/03/23 03:12:05;;;;;;;9.35;2.33;;;;;;;1.35;58.52;94523.81;5108558;28;20032;-44
2022/03/23 03:14:31;;;;;;;10.43;2.95;;;;;;;1.45;57.56;94526.00;5110664;28;20103;-44
2022/03/23 03:16:57;;;;;;;4.07;3.15;;;;;;;1.49;58.05;94518.41;5110395;28;20062;-45
2022/03/23 03:19:22;;;;;;;5.18;2.50;;;;;;;1.59;57.35;94515.63;5110454;28;20055;-44
2022/03/23 03:21:48;;;;;;;4.55;2.63;;;;;;;1.62;57.35;94517.44;5110378;28;20024;-44
2022/03/23 03:24:13;;;;;;;6.50;4.07;;;;;;;1.65;57.69;94528.13;5110735;28;20431;-45
2022/03/23 03:26:39;;;;;;;6.03;2.55;;;;;;;1.24;59.01;94521.59;5110684;28;20028;-46
2022/03/23 03:29:04;;;;;;;5.28;2.80;;;;;;;1.38;58.72;94520.94;5110626;28;20073;-44
2022/03/23 03:31:30;;;;;;;5.88;3.60;;;;;;;1.52;58.21;94533.06;5110304;28;20036;-45
2022/03/23 03:33:56;;;;;;;5.68;3.42;;;;;;;1.59;57.20;94521.06;5110304;28;20102;-43
2022/03/23 03:36:22;;;;;;;5.03;2.88;;;;;;;1.60;57.38;94522.59;5110235;28;20101;-45
2022/03/23 03:38:47;;;;;;;6.80;3.25;;;;;;;1.45;58.25;94522.53;5113708;28;20016;-44
2022/03/23 03:41:13;;;;;;;6.60;3.58;;;;;;;1.45;58.43;94517.09;5105213;28;20058;-44
2022/03/23 03:43:39;;;;;;;5.93;2.95;;;;;;;1.39;58.89;94524.38;5114215;28;20580;-45
2022/03/23 03:46:06;;;;;;;4.78;3.05;;;;;;;1.39;59.89;94511.53;5114377;28;20107;-44
2022/03/23 03:48:32;;;;;;;8.82;3.50;;;;;;;1.35;59.93;94519.13;5114021;28;20015;-45
2022/03/23 03:50:57;;;;;;;13.30;3.40;;;;;;;1.44;59.15;94513.63;5114007;28;20485;-45
2022/03/23 03:53:23;;;;;;;7.05;3.47;;;;;;;1.62;58.90;94512.00;5114141;28;20019;-44
2022/03/23 03:55:48;;;;;;;8.90;3.75;;;;;;;1.65;58.43;94509.06;5104369;28;20020;-45
2022/03/23 03:58:14;;;;;;;8.02;3.97;;;;;;;1.66;58.41;94510.59;5093452;28;20024;-45
2022/03/23 04:00:40;;;;;;;8.55;3.15;;;;;;;1.58;59.13;94519.59;5093700;28;20031;-43
2022/03/23 04:03:06;;;;;;;7.70;3.65;;;;;;;1.69;58.93;94517.81;5093645;28;20012;-43
2022/03/23 04:05:34;;;;;;;12.50;3.88;;;;;;;1.69;59.83;94514.38;5093398;28;20490;-45
2022/03/23 04:08:00;;;;;;;34.80;15.10;;;;;;;1.81;60.26;94511.38;5093339;28;20036;-44
2022/03/23 04:10:26;;;;;;;30.00;12.57;;;;;;;1.86;59.61;94504.53;5099363;28;20020;-45
2022/03/23 04:12:52;;;;;;;10.18;5.28;;;;;;;1.98;58.58;94511.69;5113548;28;20500;-44
2022/03/23 04:15:20;;;;;;;15.30;6.18;;;;;;;1.95;59.14;94510.63;5113775;28;20019;-43
2022/03/23 04:17:47;;;;;;;10.73;4.82;;;;;;;1.96;59.36;94506.72;5113768;28;20016;-45
2022/03/23 04:20:12;;;;;;;11.02;4.88;;;;;;;1.75;61.11;94512.50;5113505;28;20034;-44
2022/03/23 04:22:41;;;;;;;10.77;5.18;;;;;;;1.76;61.06;94509.28;5113705;28;20019;-45
2022/03/23 04:25:07;;;;;;;19.83;7.15;;;;;;;1.92;61.08;94499.94;5113730;28;20019;-45
2022/03/23 04:27:34;;;;;;;16.13;8.68;;;;;;;1.94;60.98;94520.03;5113596;27;20062;-44
2022/03/23 04:30:00;;;;;;;18.10;9.70;;;;;;;1.73;61.20;94485.00;5113517;28;20046;-45
2022/03/23 04:32:26;;;;;;;11.10;6.57;;;;;;;1.89;62.54;94515.25;5113306;28;20028;-45
2022/03/23 04:34:51;;;;;;;7.60;4.90;;;;;;;1.93;61.57;94521.25;5113023;28;20039;-43
2022/03/23 04:37:17;;;;;;;9.05;4.78;;;;;;;1.94;62.68;94522.00;5113276;28;20481;-46
2022/03/23 04:39:42;;;;;;;13.20;4.85;;;;;;;1.89;62.58;94517.22;5113304;28;20434;-44
2022/03/23 04:42:08;;;;;;;7.03;3.83;;;;;;;2.02;62.46;94523.16;5092094;28;20054;-43
2022/03/23 04:44:33;;;;;;;6.53;3.47;;;;;;;2.02;61.91;94520.41;5092651;28;20065;-43
2022/03/23 04:46:58;;;;;;;9.05;4.20;;;;;;;2.02;62.66;94514.97;5092496;28;20085;-45
2022/03/23 04:49:24;;;;;;;13.05;6.25;;;;;;;2.02;62.50;94521.19;5092308;28;20107;-45
2022/03/23 04:51:51;;;;;;;16.83;5.75;;;;;;;2.02;62.89;94517.69;5092707;28;20023;-45
2022/03/23 04:54:17;;;;;;;13.23;6.38;;;;;;;2.00;62.02;94501.84;5092626;28;20035;-44
2022/03/23 04:56:42;;;;;;;12.98;6.00;;;;;;;2.12;62.93;94521.88;5109265;28;20028;-45
2022/03/23 04:59:08;;;;;;;10.15;5.60;;;;;;;2.16;63.07;94516.97;5112954;28;20016;-45
2022/03/23 05:01:34;;;;;;;11.15;4.93;;;;;;;2.17;61.96;94516.50;5113016;28;20032;-44
2022/03/23 05:03:59;;;;;;;13.07;5.38;;;;;;;2.17;62.26;94516.50;5112857;28;20024;-44
2022/03/23 05:06:25;;;;;;;13.55;6.50;;;;;;;2.20;62.92;94520.25;5112580;28;20084;-44
2022/03/23 05:08:50;;;;;;;11.65;4.05;;;;;;;2.22;62.76;94512.38;5112767;28;20024;-45
2022/03/23 05:11:16;;;;;;;9.55;3.50;;;;;;;2.26;62.66;94518.38;5112760;28;20450;-44
2022/03/23 05:13:41;;;;;;;9.45;3.55;;;;;;;2.28;61.89;94516.69;5112675;28;20023;-44
2022/03/23 05:16:07;;;;;;;21.15;10.25;;;;;;;2.20;62.61;94512.84;5112433;28;20406;-44
2022/03/23 05:18:33;;;;;;;12.35;7.55;;;;;;;2.35;62.48;94525.72;5112346;28;20516;-44
2022/03/23 05:20:59;;;;;;;11.40;4.20;;;;;;;2.19;63.56;94524.97;5112240;28;20030;-45
2022/03/23 05:23:24;;;;;;;9.77;3.88;;;;;;;2.20;62.66;94531.16;5112278;28;20026;-44
2022/03/23 05:25:49;;;;;;;4.68;3.60;;;;;;;2.17;63.13;94516.50;5112125;28;20534;-45
2022/03/23 05:28:15;;;;;;;9.80;4.97;;;;;;;2.22;62.87;94515.09;5112102;28;20027;-45
2022/03/23 05:30:40;;;;;;;11.02;5.35;;;;;;;2.18;62.78;94530.88;5112318;28;20026;-44
2022/03/23 05:33:06;;;;;;;15.00;6.57;;;;;;;2.23;63.06;94513.88;5110812;28;20042;-44
2022/03/23 05:35:32;;;;;;;8.57;5.93;;;;;;;2.29;63.11;94520.19;5092279;28;20048;-44
2022/03/23 05:37:57;;;;;;;18.90;6.70;;;;;;;2.37;62.44;94517.81;5091609;28;20020;-44
2022/03/23 05:40:23;;;;;;;10.38;5.25;;;;;;;2.40;62.27;94527.78;5095217;28;20023;-44
2022/03/23 05:42:49;;;;;;;27.90;10.05;;;;;;;2.42;62.48;94525.34;5112090;28;20440;-44
2022/03/23 05:45:15;;;;;;;18.10;7.35;;;;;;;2.37;62.64;94526.75;5112110;28;20034;-44
2022/03/23 05:47:41;;;;;;;13.70;6.65;;;;;;;2.47;62.81;94522.72;5111684;28;20420;-43
2022/03/23 05:50:08;;;;;;;6.20;4.20;;;;;;;2.43;62.71;94519.41;5111791;28;20069;-44
2022/03/23 05:52:34;;;;;;;11.45;5.53;;;;;;;2.53;61.45;94526.28;5111692;28;20030;-44
2022/03/23 05:55:01;;;;;;;7.72;3.95;;;;;;;2.45;62.36;94503.34;5111405;28;20067;-43
2022/03/23 05:57:27;;;;;;;11.38;5.97;;;;;;;2.56;62.78;94519.13;5111900;28;20058;-43
2022/03/23 05:59:52;;;;;;;16.13;7.18;;;;;;;2.50;62.18;94515.56;5110647;28;20115;-44
2022/03/23 06:02:18;;;;;;;27.42;9.20;;;;;;;2.53;62.67;94520.84;5110175;28;20028;-44
2022/03/23 06:04:43;;;;;;;23.80;8.75;;;;;;;2.58;62.32;94530.34;5111688;28;20016;-44
2022/03/23 06:07:10;;;;;;;33.58;13.13;;;;;;;2.68;61.30;94531.75;5111670;28;20052;-43
2022/03/23 06:09:35;;;;;;;36.92;11.98;;;;;;;2.66;61.45;94526.00;5111381;28;20050;-45
2022/03/23 06:12:04;;;;;;;16.65;8.05;;;;;;;2.38;61.88;94531.00;5091983;28;20069;-43
2022/03/23 06:14:29;;;;;;;12.70;4.68;;;;;;;2.63;61.33;94526.94;5090904;28;20036;-45
2022/03/23 06:16:54;;;;;;;10.40;4.30;;;;;;;2.77;61.10;94535.09;5090823;28;20024;-44
2022/03/23 06:19:20;;;;;;;6.82;3.58;;;;;;;2.90;61.29;94527.38;5090821;28;20085;-43
2022/03/23 06:21:45;;;;;;;10.88;4.80;;;;;;;2.77;60.34;94507.81;5091102;28;20032;-44
2022/03/23 06:24:11;;;;;;;12.27;4.95;;;;;;;2.94;60.58;94527.94;5090699;28;20089;-45
2022/03/23 06:26:36;;;;;;;4.05;2.95;;;;;;;2.94;60.26;94535.38;5091068;28;20028;-46
2022/03/23 06:29:02;;;;;;;27.42;10.40;;;;;;;3.05;59.87;94535.53;5090584;28;20028;-44
2022/03/23 06:31:28;;;;;;;14.68;5.07;;;;;;;3.18;59.48;94535.22;5107325;28;20034;-44
2022/03/23 06:33:53;;;;;;;9.13;4.95;;;;;;;2.99;58.39;94508.16;5110682;28;20020;-46
2022/03/23 06:36:19;;;;;;;12.52;6.65;;;;;;;3.15;58.65;94536.16;5110869;28;20122;-44
2022/03/23 06:38:44;;;;;;;11.13;5.97;;;;;;;3.23;58.40;94538.03;5111199;28;20028;-43
2022/03/23 06:41:10;;;;;;;10.82;5.38;;;;;;;3.34;58.67;94531.97;5098462;28;20016;-44
2022/03/23 06:43:35;;;;;;;3.85;2.45;;;;;;;3.19;57.06;94520.34;5090774;28;20008;-44
2022/03/23 06:46:01;;;;;;;9.48;3.58;;;;;;;3.22;58.19;94535.78;5090358;28;20039;-45
2022/03/23 06:48:27;;;;;;;12.35;4.90;;;;;;;3.48;58.29;94531.94;5090661;28;20020;-45
2022/03/23 06:50:52;;;;;;;38.40;18.55;;;;;;;3.77;56.99;94537.25;5090373;28;20106;-43
2022/03/23 06:53:18;;;;;;;15.93;9.23;;;;;;;3.86;56.68;94536.38;5090226;28;20024;-45
2022/03/23 06:55:43;;;;;;;37.88;17.70;;;;;;;4.18;56.78;94527.03;5099204;28;20028;-44
2022/03/23 06:58:09;;;;;;;14.15;6.65;;;;;;;4.20;56.47;94526.56;5110902;28;20424;-42
2022/03/23 07:00:34;;;;;;;9.23;4.70;;;;;;;4.26;55.23;94528.13;5110857;28;20015;-44
2022/03/23 07:03:00;;;;;;;16.95;6.57;;;;;;;4.20;55.42;94526.56;5110842;28;20165;-43
2022/03/23 07:05:25;;;;;;;15.07;6.22;;;;;;;4.20;55.55;94535.50;5110902;28;20081;-44
2022/03/23 07:10:34;;;;;;;15.95;6.50;;;;;;;4.89;53.40;94509.03;5110529;28;20022;-44
2022/03/23 07:13:00;;;;;;;8.27;4.68;;;;;;;5.97;50.71;94522.38;5114461;28;20020;-43
2022/03/23 07:15:27;;;;;;;13.05;6.05;;;;;;;5.71;49.98;94529.97;5114731;28;20019;-43
2022/03/23 07:17:52;;;;;;;10.73;6.60;;;;;;;5.67;49.84;94532.19;5114603;28;20539;-43
2022/03/23 07:20:18;;;;;;;8.40;4.75;;;;;;;5.89;49.60;94533.06;5114917;28;20024;-43
2022/03/23 07:22:43;;;;;;;13.65;5.70;;;;;;;6.34;48.81;94535.97;5114550;28;20489;-43
2022/03/23 07:25:10;;;;;;;10.32;4.43;;;;;;;6.44;48.10;94537.97;5114497;28;20081;-45
2022/03/23 07:27:36;;;;;;;6.15;4.00;;;;;;;7.20;48.23;94524.03;5098678;28;20536;-43
2022/03/23 07:30:01;;;;;;;11.27;6.85;;;;;;;7.67;44.54;94535.97;5094115;28;20020;-45
2022/03/23 07:32:27;;;;;;;12.55;6.65;;;;;;;7.79;43.11;94494.22;5094121;28;20103;-46
2022/03/23 07:34:52;;;;;;;11.48;5.07;;;;;;;7.88;44.37;94534.41;5093617;28;20036;-44
2022/03/23 07:37:18;;;;;;;10.30;4.32;;;;;;;7.21;45.32;94534.53;5093915;28;20016;-44
2022/03/23 07:39:43;;;;;;;9.27;5.88;;;;;;;6.92;45.86;94540.53;5093516;28;20129;-43
2022/03/23 07:42:09;;;;;;;12.82;8.52;;;;;;;7.06;44.76;94542.28;5093815;28;20551;-45
2022/03/23 07:44:35;;;;;;;9.65;6.35;;;;;;;6.75;45.97;94545.25;5094115;28;20111;-44
2022/03/23 07:47:01;;;;;;;6.85;4.85;;;;;;;7.22;45.09;94540.78;5093922;28;20493;-44
2022/03/23 07:49:26;;;;;;;6.88;3.70;;;;;;;8.23;43.66;94531.75;5094056;28;20024;-44
2022/03/23 07:51:52;;;;;;;6.22;3.72;;;;;;;8.87;42.51;94541.44;5093621;28;20555;-44
2022/03/23 07:54:17;;;;;;;8.30;3.83;;;;;;;8.91;40.20;94509.63;5093601;28;20020;-47
2022/03/23 07:56:44;;;;;;;13.82;7.50;;;;;;;9.16;39.53;94527.69;5110566;28;20020;-46
2022/03/23 07:59:09;;;;;;;5.65;3.85;;;;;;;8.51;39.89;94540.66;5114180;28;20294;-44
2022/03/23 08:01:35;;;;;;;7.07;3.88;;;;;;;8.43;39.27;94516.94;5114149;28;20027;-44
2022/03/23 08:04:01;;;;;;;9.80;3.60;;;;;;;9.85;38.13;94536.31;5113663;28;20051;-45
2022/03/23 08:06:27;;;;;;;8.00;4.13;;;;;;;11.15;36.57;94526.59;5113791;28;20028;-45
2022/03/23 08:08:53;;;;;;;6.60;3.47;;;;;;;12.29;33.87;94523.56;5113646;28;20084;-44
2022/03/23 08:11:19;;;;;;;5.32;2.47;;;;;;;12.09;33.00;94530.50;5113912;28;20445;-45
2022/03/23 08:13:44;;;;;;;5.78;3.47;;;;;;;11.93;32.76;94518.47;5113772;28;20102;-44
2022/03/23 08:16:10;;;;;;;26.20;13.40;;;;;;;10.90;34.54;94530.75;5113856;28;20462;-47
2022/03/23 08:18:35;;;;;;;19.88;11.07;;;;;;;11.29;36.14;94539.19;5113485;28;20020;-44
2022/03/23 08:21:01;;;;;;;9.85;4.57;;;;;;;11.38;33.22;94530.50;5112236;28;20031;-44
2022/03/23 08:23:27;;;;;;;11.43;4.40;;;;;;;11.40;34.49;94539.75;5100121;28;20069;-46
2022/03/23 08:25:52;;;;;;;6.50;3.33;;;;;;;11.35;33.28;94518.47;5093252;28;20039;-45
2022/03/23 08:28:18;;;;;;;7.78;3.42;;;;;;;11.35;33.59;94528.78;5093226;28;20382;-44
2022/03/23 08:30:44;;;;;;;7.00;4.03;;;;;;;11.74;33.35;94533.66;5091938;28;20039;-45
2022/03/23 08:33:10;;;;;;;19.80;9.57;;;;;;;11.37;33.19;94538.03;5093142;28;20290;-45
2022/03/23 08:35:36;;;;;;;10.00;4.60;;;;;;;11.19;32.41;94535.34;5092620;28;20040;-43
2022/03/23 08:38:02;;;;;;;7.45;5.47;;;;;;;10.57;33.14;94538.22;5092992;28;20052;-45
2022/03/23 08:40:28;;;;;;;10.73;4.20;;;;;;;9.77;34.93;94537.41;5092471;28;20418;-43
2022/03/23 08:42:55;;;;;;;6.75;3.38;;;;;;;9.80;34.73;94537.13;5092949;28;20024;-44
2022/03/23 08:45:21;;;;;;;4.95;3.05;;;;;;;10.08;36.68;94538.81;5092667;28;20025;-45
2022/03/23 08:47:49;;;;;;;6.10;3.13;;;;;;;10.97;34.49;94541.94;5092612;28;20213;-45
2022/03/23 08:50:15;;;;;;;6.05;3.42;;;;;;;11.12;33.93;94541.47;5092531;28;20024;-45
2022/03/23 08:52:41;;;;;;;6.95;3.65;;;;;;;10.26;34.00;94557.47;5092453;28;20036;-46
2022/03/23 08:55:09;;;;;;;11.93;3.70;;;;;;;10.46;37.60;94535.59;5096117;28;20024;-45
2022/03/23 08:57:38;;;;;;;14.32;3.45;;;;;;;11.48;32.53;94533.59;5113399;28;20028;-45
2022/03/23 09:00:05;;;;;;;5.53;3.45;;;;;;;12.26;32.69;94532.97;5112992;28;20023;-45
2022/03/23 09:02:31;;;;;;;6.93;3.75;;;;;;;13.32;32.12;94516.25;5112733;28;20058;-45
2022/03/23 09:04:56;;;;;;;6.80;4.57;;;;;;;13.84;31.11;94534.63;5112586;28;20019;-45
2022/03/23 09:07:22;;;;;;;8.40;5.20;;;;;;;14.97;30.54;94537.28;5112558;28;20020;-47
2022/03/23 09:09:47;;;;;;;9.30;4.15;;;;;;;16.43;28.08;94519.53;5112807;28;20106;-45
2022/03/23 09:12:13;;;;;;;6.93;3.35;;;;;;;18.09;25.01;94524.22;5112783;28;20019;-46
2022/03/23 09:14:39;;;;;;;5.53;4.53;;;;;;;17.92;23.41;94526.97;5112376;28;20412;-46
2022/03/23 09:17:04;;;;;;;5.97;3.47;;;;;;;17.71;24.25;94526.56;5112303;28;20436;-46
2022/03/23 09:19:30;;;;;;;5.85;3.72;;;;;;;18.72;23.72;94518.19;5101663;28;20032;-45
2022/03/23 09:21:55;;;;;;;5.97;3.50;;;;;;;18.60;23.45;94515.13;5092166;28;20020;-45
2022/03/23 09:24:21;;;;;;;5.28;3.25;;;;;;;18.84;23.42;94516.38;5091941;28;20016;-45
2022/03/23 09:26:47;;;;;;;5.38;3.53;;;;;;;18.57;23.26;94518.34;5092125;28;20031;-46
2022/03/23 09:29:12;;;;;;;6.65;3.47;;;;;;;17.21;22.58;94525.75;5092055;28;20027;-45
2022/03/23 09:31:38;;;;;;;4.30;2.88;;;;;;;16.09;23.82;94524.78;5092103;28;20020;-47
2022/03/23 09:34:05;;;;;;;8.35;3.63;;;;;;;16.13;23.83;94513.28;5091283;28;20024;-46
2022/03/23 09:39:16;;;;;;;6.70;3.63;;;;;;;17.40;22.92;94519.69;5090774;28;20540;-45
2022/03/23 09:41:43;;;;;;;23.40;5.25;;;;;;;16.82;24.53;94515.34;5090919;28;20043;-45
2022/03/23 09:44:09;;;;;;;9.35;3.75;;;;;;;16.93;26.08;94511.38;5090358;28;20016;-46
2022/03/23 09:46:35;;;;;;;9.27;4.05;;;;;;;17.21;25.60;94514.59;5091415;28;20023;-47
2022/03/23 09:49:00;;;;;;;8.27;3.90;;;;;;;16.75;23.53;94515.38;5091664;28;20031;-44
2022/03/23 09:51:26;;;;;;;5.63;3.30;;;;;;;16.01;23.87;94524.06;5091399;28;20061;-46
2022/03/23 09:53:53;;;;;;;10.90;3.92;;;;;;;16.49;25.97;94513.75;5090232;28;20099;-46
2022/03/23 09:56:19;;;;;;;9.55;3.95;;;;;;;16.97;24.05;94514.53;5105126;28;20062;-47
2022/03/23 09:58:44;;;;;;;7.53;3.17;;;;;;;16.43;24.11;94488.88;5111507;28;20020;-45
2022/03/23 10:01:28;;;;;;;7.18;3.55;;;;;;;16.61;22.71;94506.50;5111760;28;20016;-45
2022/03/23 10:04:12;;;;;;;10.18;4.13;;;;;;;17.42;23.83;94505.91;5111449;28;20057;-46
2022/03/23 10:06:48;;;;;;;10.45;5.32;;;;;;;19.16;22.54;94507.75;5111806;28;20113;-45
2022/03/23 10:09:26;;;;;;;12.55;5.93;;;;;;;19.64;22.65;94508.03;5111360;28;20102;-46
2022/03/23 10:12:29;;;;;;;9.32;4.35;;;;;;;19.81;20.57;94499.53;5111469;28;20028;-45
2022/03/23 10:15:47;;;;;;;14.48;8.63;;;;;;;20.08;21.25;94491.78;5107655;28;20419;-45
2022/03/23 10:18:31;;;;;;;;;;;;;;;20.27;20.93;94500.28;5091397;28;20024;-45
2022/03/23 10:20:56;;;;;;;9.25;6.70;;;;;;;20.58;20.70;94499.72;5090832;28;20006;-44
2022/03/23 10:23:22;;;;;;;7.18;3.28;;;;;;;20.01;19.00;94494.75;5091007;28;20089;-46
2022/03/23 10:25:48;;;;;;;12.32;4.55;;;;;;;19.63;21.26;94498.88;5090765;28;20081;-46
2022/03/23 10:28:15;;;;;;;12.23;6.57;;;;;;;19.59;20.94;94500.63;5090647;28;20019;-44
2022/03/23 10:30:42;;;;;;;14.93;7.43;;;;;;;18.87;21.79;94499.16;5090614;28;20120;-44
2022/03/23 10:33:20;;;;;;;7.55;4.65;;;;;;;18.42;21.70;94488.47;5090678;28;20024;-47
2022/03/23 10:35:46;;;;;;;6.73;4.80;;;;;;;17.52;21.96;94492.09;5090468;28;20509;-46
2022/03/23 10:38:19;;;;;;;6.75;3.53;;;;;;;16.37;25.29;94487.59;5090566;28;20023;-45
2022/03/23 10:40:49;;;;;;;8.15;4.30;;;;;;;16.44;25.53;94484.03;5090134;28;20063;-46
2022/03/23 10:43:16;;;;;;;9.00;4.18;;;;;;;16.38;24.51;94487.03;5090405;28;20028;-45
2022/03/23 10:45:42;;;;;;;11.68;5.13;;;;;;;17.16;24.42;94476.47;5089989;28;20059;-45
2022/03/23 10:48:18;;;;;;;16.73;5.85;;;;;;;17.94;23.49;94482.44;5090737;28;20052;-46
2022/03/23 10:50:57;;;;;;;6.85;3.85;;;;;;;17.80;21.77;94478.44;5089093;28;20106;-45
2022/03/23 10:53:37;;;;;;;6.40;3.78;;;;;;;18.23;23.71;94463.16;5090528;28;20020;-47
2022/03/23 10:56:03;;;;;;;10.73;4.97;;;;;;;19.38;21.08;94475.19;5102149;28;20063;-46
2022/03/23 10:58:29;;;;;;;15.45;8.60;;;;;;;18.84;21.44;94468.81;5110955;28;20054;-44
2022/03/23 11:00:57;;;;;;;7.15;4.07;;;;;;;17.60;23.52;94460.00;5110556;28;20024;-46
2022/03/23 11:03:38;;;;;;;7.53;3.55;;;;;;;18.27;22.01;94468.31;5110581;28;20024;-45
2022/03/23 11:06:05;;;;;;;9.48;6.40;;;;;;;18.44;22.67;94466.28;5110523;28;20028;-47
2022/03/23 11:08:31;;;;;;;10.40;3.78;;;;;;;17.56;23.86;94475.69;5110880;28;20058;-45
2022/03/23 11:16:31;;;;;;;13.82;8.07;;;;;;;15.71;23.73;94462.84;5090549;28;20081;-45
2022/03/23 11:19:12;;;;;;;14.70;6.35;;;;;;;15.76;25.21;94457.09;5090126;28;20028;-45
2022/03/23 11:22:03;;;;;;;7.25;3.95;;;;;;;16.24;24.94;94457.88;5090555;28;20028;-45
2022/03/23 11:24:52;;;;;;;6.47;4.75;;;;;;;16.01;25.71;94428.63;5090081;28;20032;-45
2022/03/23 11:27:19;;;;;;;8.95;4.82;;;;;;;15.97;24.69;94456.84;5090200;28;20039;-45
2022/03/23 11:29:46;;;;;;;10.63;5.18;;;;;;;15.15;24.31;94456.31;5089927;28;20056;-44
2022/03/23 11:32:27;;;;;;;7.55;3.42;;;;;;;14.66;25.60;94447.47;5090325;28;20020;-45
2022/03/23 11:34:56;;;;;;;9.63;3.90;;;;;;;14.26;26.38;94449.16;5088735;28;20294;-44
2022/03/23 11:37:23;;;;;;;8.57;4.28;;;;;;;14.27;27.17;94447.88;5090263;28;20408;-46
2022/03/23 11:39:50;;;;;;;10.27;5.00;;;;;;;14.19;26.30;94447.09;5090499;28;20039;-44
2022/03/23 11:42:17;;;;;;;5.90;3.95;;;;;;;13.96;26.82;94446.97;5110230;28;20598;-47
2022/03/23 11:44:46;;;;;;;6.95;3.30;;;;;;;13.89;27.49;94441.38;5110235;28;20034;-46
2022/03/23 11:47:35;;;;;;;8.55;3.60;;;;;;;13.88;26.52;94434.34;5109327;28;20084;-46
2022/03/23 11:50:22;;;;;;;5.70;3.90;;;;;;;13.86;26.51;94425.84;5109893;28;20039;-46
2022/03/23 11:53:08;;;;;;;7.22;3.97;;;;;;;14.30;26.03;94427.34;5110457;28;20102;-45
2022/03/23 11:55:46;;;;;;;8.32;3.97;;;;;;;14.13;27.65;94422.25;5102778;28;20414;-45